Watertown, WI

12:19 PM CDT on April 30, 2017 (GMT -0500)
Watertown Municipal

Weather History for KRYV - December, 2012

Change the Weather History Date:

Wednesday, December 12, 2012

  Actual Average Record
Temperature  
Mean Temperature 34 °F -  
Max Temperature 43 °F 33 °F 58 °F (1949)
Min Temperature 25 °F 17 °F -9 °F (1962)
Degree Days  
Heating Degree Days 31    
Moisture  
Dew Point 25 °F    
Average Humidity 71    
Maximum Humidity 88    
Minimum Humidity 48    
Precipitation  
Precipitation 0.00 in - - ()
Sea Level Pressure  
Sea Level Pressure 30.14 in    
Wind  
Wind Speed 7 mph (South)    
Max Wind Speed 17 mph    
Max Gust Speed 24 mph    
Visibility 10 miles    
Events      
Averages and records for this station are not official NWS values.
T = Trace of Precipitation, MM = Missing Value Source: NWS Daily Summary

Daily Weather History Graph

Daily Weather History Graph

Search for Another Location

Airport or City:

Trip Planner

Search our weather history database for the weather conditions in past years. The results will help you decide how hot, cold, wet, or windy it might be!

Date:

Astronomy

Dec. 12, 2012 Rise Set
Actual Time 7:17 AM CST 4:19 PM CST
Civil Twilight 6:45 AM CST 4:52 PM CST
Nautical Twilight 6:09 AM CST 5:28 PM CST
Astronomical Twilight 5:35 AM CST 6:02 PM CST
Moon 6:21 AM CST (12/12) 3:57 PM CST (12/12)
Length of Visible Light 10h 06m
Length of Day
9h 01m
Waning Crescent, 1% of the Moon is Illuminated
Dec 12
Waning Crescent
Dec 13
New
Dec 19
First Quarter
Dec 28
Full
Jan 4
Last Quarter

Hourly Weather History & Observations

Time (CST) Temp. Windchill Dew Point Humidity Pressure Visibility Wind Dir Wind Speed Gust Speed Precip Events Conditions
12:15 AM 31.1 °F 24.5 °F 25.3 °F 79% 30.07 in 10.0 mi SW 6.9 mph - N/A   Overcast
12:35 AM 31.1 °F 24.5 °F 25.2 °F 79% 30.07 in 10.0 mi SW 6.9 mph - N/A   Overcast
12:55 AM 31.1 °F 25.4 °F 24.8 °F 77% 30.08 in 10.0 mi SW 5.8 mph - N/A   Overcast
1:15 AM 30.7 °F 26.0 °F 25.2 °F 80% 30.09 in 10.0 mi SW 4.6 mph - N/A   Overcast
1:35 AM 30.4 °F 24.5 °F 25.3 °F 82% 30.10 in 10.0 mi SW 5.8 mph - N/A   Overcast
1:55 AM 30.0 °F 25.2 °F 25.3 °F 83% 30.10 in 10.0 mi SW 4.6 mph - N/A   Overcast
2:15 AM 30.2 °F 26.7 °F 25.5 °F 83% 30.11 in 10.0 mi SW 3.5 mph - N/A   Overcast
2:55 AM 29.7 °F 26.1 °F 25.5 °F 85% 30.11 in 10.0 mi South 3.5 mph - N/A   Overcast
3:15 AM 29.7 °F - 25.3 °F 84% 30.10 in 10.0 mi Calm Calm - N/A   Overcast
3:35 AM 29.3 °F - 25.2 °F 85% 30.10 in 10.0 mi Calm Calm - N/A   Overcast
3:55 AM 29.3 °F 25.6 °F 25.3 °F 85% 30.10 in 10.0 mi South 3.5 mph - N/A   Overcast
4:15 AM 29.3 °F 23.2 °F 25.3 °F 85% 30.11 in 10.0 mi South 5.8 mph - N/A   Overcast
4:35 AM 28.9 °F 23.9 °F 24.8 °F 84% 30.11 in 10.0 mi South 4.6 mph - N/A   Overcast
4:55 AM 28.4 °F 23.3 °F 24.4 °F 85% 30.11 in 10.0 mi SSE 4.6 mph - N/A   Mostly Cloudy
5:15 AM 27.9 °F 24.0 °F 23.9 °F 85% 30.12 in 10.0 mi SSE 3.5 mph - N/A   Scattered Clouds
5:35 AM 27.3 °F 23.4 °F 23.4 °F 85% 30.13 in 10.0 mi SE 3.5 mph - N/A   Clear
5:55 AM 27.0 °F - 23.4 °F 86% 30.13 in 10.0 mi Calm Calm - N/A   Clear
6:15 AM 25.7 °F 20.1 °F 22.6 °F 88% 30.14 in 10.0 mi SSE 4.6 mph - N/A   Scattered Clouds
6:35 AM 25.7 °F 20.1 °F 22.1 °F 86% 30.14 in 10.0 mi SSE 4.6 mph - N/A   Scattered Clouds
6:55 AM 25.7 °F 19.0 °F 21.9 °F 86% 30.14 in 10.0 mi SSE 5.8 mph - N/A   Scattered Clouds
7:15 AM 25.7 °F 19.0 °F 21.6 °F 84% 30.15 in 10.0 mi South 5.8 mph - N/A   Clear
7:55 AM 26.6 °F 21.2 °F 21.9 °F 82% 30.15 in 10.0 mi South 4.6 mph - N/A   Clear
8:15 AM 27.5 °F 20.2 °F 22.3 °F 81% 30.16 in 10.0 mi South 6.9 mph - N/A   Clear
8:35 AM 28.8 °F 21.7 °F 22.8 °F 78% 30.17 in 10.0 mi South 6.9 mph - N/A   Clear
9:15 AM 31.1 °F 23.1 °F 23.4 °F 73% 30.18 in 10.0 mi SSW 9.2 mph - N/A   Clear
9:35 AM 32.2 °F 25.0 °F 24.1 °F 72% 30.19 in 10.0 mi SSW 8.1 mph - N/A   Clear
9:55 AM 33.1 °F 24.4 °F 23.7 °F 68% 30.19 in 10.0 mi SSW 11.5 mph - N/A   Clear
10:15 AM 34.0 °F 26.0 °F 24.1 °F 67% 30.19 in 10.0 mi SSW 10.4 mph - N/A   Clear
10:55 AM 36.3 °F 29.5 °F 25.2 °F 64% 30.19 in 10.0 mi South 9.2 mph - N/A   Clear
11:15 AM 36.0 °F 30.3 °F 25.2 °F 65% 30.18 in 10.0 mi South 6.9 mph - N/A   Clear
11:35 AM 37.6 °F 30.5 °F 25.2 °F 61% 30.18 in 10.0 mi SSW 10.4 mph - N/A   Clear
12:15 PM 40.1 °F 32.4 °F 25.0 °F 55% 30.17 in 10.0 mi SSW 13.8 mph 19.6 mph N/A   Clear
12:35 PM 41.4 °F 34.7 °F 25.3 °F 53% 30.16 in 10.0 mi South 11.5 mph - N/A   Clear
12:55 PM 42.1 °F 36.1 °F 25.7 °F 52% 30.15 in 10.0 mi South 10.4 mph - N/A   Clear
1:15 PM 43.2 °F 36.2 °F 25.7 °F 50% 30.14 in 10.0 mi South 13.8 mph 19.6 mph N/A   Clear
1:35 PM 43.5 °F 37.5 °F 26.1 °F 50% 30.14 in 10.0 mi SSW 11.5 mph 16.1 mph N/A   Clear
1:55 PM 43.2 °F 35.9 °F 24.8 °F 48% 30.14 in 10.0 mi SSW 15.0 mph 24.2 mph N/A   Clear
2:35 PM 43.0 °F 36.4 °F 25.2 °F 49% 30.14 in 10.0 mi South 12.7 mph 23.0 mph N/A   Clear
2:55 PM 42.3 °F 35.9 °F 24.6 °F 50% 30.14 in 10.0 mi South 11.5 mph - N/A   Clear
3:15 PM 41.5 °F 34.6 °F 24.8 °F 51% 30.15 in 10.0 mi South 12.7 mph - N/A   Clear
3:35 PM 41.2 °F 34.5 °F 25.7 °F 54% 30.15 in 10.0 mi South 11.5 mph - N/A   Clear
3:55 PM 40.3 °F 33.9 °F 25.7 °F 56% 30.14 in 10.0 mi South 10.4 mph 16.1 mph N/A   Clear
4:15 PM 39.2 °F 32.5 °F 26.2 °F 60% 30.14 in 10.0 mi South 10.4 mph - N/A   Clear
4:35 PM 38.5 °F 31.6 °F 26.4 °F 62% 30.14 in 10.0 mi South 10.4 mph 17.3 mph N/A   Clear
4:55 PM 37.8 °F 30.7 °F 25.7 °F 62% 30.14 in 10.0 mi South 10.4 mph - N/A   Clear
5:15 PM 37.2 °F 30.6 °F 25.5 °F 63% 30.14 in 10.0 mi South 9.2 mph - N/A   Clear
5:35 PM 36.9 °F 29.6 °F 26.1 °F 65% 30.14 in 10.0 mi South 10.4 mph 17.3 mph N/A   Clear
5:55 PM 36.5 °F 29.2 °F 26.6 °F 67% 30.14 in 10.0 mi South 10.4 mph 17.3 mph N/A   Clear
6:35 PM 36.3 °F 27.5 °F 26.6 °F 68% 30.13 in 10.0 mi South 13.8 mph 20.7 mph N/A   Clear
6:55 PM 36.5 °F 27.8 °F 26.4 °F 67% 30.13 in 10.0 mi South 13.8 mph 18.4 mph N/A   Clear
7:15 PM 36.3 °F 28.4 °F 25.7 °F 65% 30.14 in 10.0 mi South 11.5 mph 19.6 mph N/A   Clear
7:35 PM 36.1 °F 28.2 °F 25.7 °F 66% 30.14 in 10.0 mi South 11.5 mph 17.3 mph N/A   Clear
7:55 PM 36.5 °F 28.7 °F 25.7 °F 65% 30.14 in 10.0 mi South 11.5 mph - N/A   Clear
8:15 PM 36.7 °F 27.2 °F 26.2 °F 66% 30.14 in 10.0 mi South 16.1 mph 20.7 mph N/A   Clear
8:35 PM 36.5 °F 26.7 °F 26.6 °F 67% 30.14 in 10.0 mi South 17.3 mph 24.2 mph N/A   Clear
9:15 PM 35.4 °F 26.0 °F 27.1 °F 72% 30.15 in 10.0 mi South 15.0 mph 20.7 mph N/A   Clear
9:35 PM 34.9 °F 25.7 °F 27.3 °F 74% 30.15 in 10.0 mi South 13.8 mph 19.6 mph N/A   Clear
10:15 PM 34.2 °F 26.2 °F 27.3 °F 76% 30.16 in 10.0 mi South 10.4 mph 18.4 mph N/A   Clear
10:35 PM 34.2 °F 26.2 °F 27.5 °F 77% 30.16 in 10.0 mi South 10.4 mph - N/A   Clear
10:55 PM 34.3 °F 27.7 °F 27.3 °F 76% 30.16 in 10.0 mi South 8.1 mph - N/A   Clear
11:55 PM 33.8 °F 28.6 °F 26.4 °F 74% 30.17 in 10.0 mi South 5.8 mph - N/A   Clear